Time;durP1;ratioP1;P1;durP2;ratioP2;P2;SDS_P1;SDS_P2;PMS_P1;PMS_P2;Temp;Humidity;BMP_temperature;BMP_pressure;BME280_temperature;BME280_humidity;BME280_pressure;Samples;Min_cycle;Max_cycle;Signal;HPM_P1;HPM_P2
2022/12/27 00:02:10;;;;;;;3.87;1.90;;;;;;;;;;4972327;28;20454;-74
2022/12/27 00:05:00;;;;;;;5.10;1.90;;;;;;;;;;4978489;28;20456;-75
2022/12/27 00:07:51;;;;;;;8.17;2.20;;;;;;;;;;4986305;28;20474;-74
2022/12/27 00:10:40;;;;;;;3.33;1.80;;;;;;;;;;4982434;28;20485;-75
2022/12/27 00:13:30;;;;;;;3.70;1.80;;;;;;;;;;4983579;28;20448;-74
2022/12/27 00:16:22;;;;;;;5.50;2.17;;;;;;;;;;4978910;28;20514;-74
2022/12/27 00:19:10;;;;;;;5.80;2.20;;;;;;;;;;4979916;28;20480;-74
2022/12/27 00:22:00;;;;;;;5.17;2.17;;;;;;;;;;4969641;28;20443;-75
2022/12/27 00:24:53;;;;;;;3.87;1.70;;;;;;;;;;4980357;28;20962;-74
2022/12/27 00:27:45;;;;;;;6.47;2.60;;;;;;;;;;4974969;28;20908;-74
2022/12/27 00:30:35;;;;;;;3.83;1.90;;;;;;;;;;4987221;28;20481;-74
2022/12/27 00:33:37;;;;;;;2.67;1.60;;;;;;;;;;4964441;28;20460;-74
2022/12/27 00:36:29;;;;;;;4.87;1.60;;;;;;;;;;4968017;28;20476;-74
2022/12/27 00:39:20;;;;;;;5.63;1.90;;;;;;;;;;4972549;28;20943;-74
2022/12/27 00:42:14;;;;;;;2.03;1.83;;;;;;;;;;4976420;28;20458;-78
2022/12/27 00:45:06;;;;;;;4.13;2.53;;;;;;;;;;4983415;28;20547;-74
2022/12/27 00:47:55;;;;;;;4.97;2.23;;;;;;;;;;4971882;28;20456;-74
2022/12/27 00:50:46;;;;;;;4.40;2.10;;;;;;;;;;4978365;28;20470;-75
2022/12/27 00:53:38;;;;;;;5.13;1.73;;;;;;;;;;4982199;28;20450;-75
2022/12/27 00:56:29;;;;;;;3.37;1.70;;;;;;;;;;4978641;28;20509;-75
2022/12/27 00:59:19;;;;;;;8.90;2.53;;;;;;;;;;4977555;28;20480;-75
2022/12/27 01:02:09;;;;;;;8.00;2.10;;;;;;;;;;4979509;28;20463;-76
2022/12/27 01:04:58;;;;;;;5.33;2.03;;;;;;;;;;4983799;28;20453;-75
2022/12/27 01:07:46;;;;;;;6.10;2.27;;;;;;;;;;4980709;28;20457;-74
2022/12/27 01:10:36;;;;;;;4.77;2.40;;;;;;;;;;4969512;28;20472;-75
2022/12/27 01:13:26;;;;;;;6.17;2.50;;;;;;;;;;4982342;28;20461;-74
2022/12/27 01:16:20;;;;;;;4.90;2.30;;;;;;;;;;4972647;28;20559;-75
2022/12/27 01:19:10;;;;;;;3.23;1.93;;;;;;;;;;4971608;28;20915;-75
2022/12/27 01:22:04;;;;;;;5.63;2.77;;;;;;;;;;4967915;28;20895;-74
2022/12/27 01:24:58;;;;;;;3.73;2.27;;;;;;;;;;4971781;28;20434;-75
2022/12/27 01:27:47;;;;;;;6.77;2.37;;;;;;;;;;4964736;28;20462;-74
2022/12/27 01:30:39;;;;;;;4.63;2.37;;;;;;;;;;4976034;28;20975;-74
2022/12/27 01:33:31;;;;;;;3.47;2.10;;;;;;;;;;4971090;28;20542;-74
2022/12/27 01:36:25;;;;;;;4.40;2.30;;;;;;;;;;4974834;28;20479;-74
2022/12/27 01:39:17;;;;;;;4.93;2.63;;;;;;;;;;4979198;28;20464;-75
2022/12/27 01:45:25;;;;;;;4.00;2.17;;;;;;;;;;4977545;28;20565;-75
2022/12/27 01:48:17;;;;;;;4.70;2.27;;;;;;;;;;4977500;28;20458;-74
2022/12/27 01:51:14;;;;;;;5.00;2.47;;;;;;;;;;4966772;28;20636;-74
2022/12/27 01:54:05;;;;;;;5.83;2.33;;;;;;;;;;4978016;28;20455;-75
2022/12/27 01:57:00;;;;;;;5.77;2.67;;;;;;;;;;4968529;28;20481;-74
2022/12/27 01:59:51;;;;;;;4.40;2.33;;;;;;;;;;4969734;28;20568;-77
2022/12/27 02:02:42;;;;;;;5.63;2.70;;;;;;;;;;4982713;28;20502;-75
2022/12/27 02:05:33;;;;;;;4.40;2.43;;;;;;;;;;4976843;28;20495;-74
2022/12/27 02:08:47;;;;;;;4.70;2.30;;;;;;;;;;4977981;28;20471;-74
2022/12/27 02:11:51;;;;;;;4.90;2.87;;;;;;;;;;4983977;28;20479;-74
2022/12/27 02:14:44;;;;;;;6.40;2.63;;;;;;;;;;4960648;28;20455;-74
2022/12/27 02:17:35;;;;;;;5.60;2.63;;;;;;;;;;4967198;28;20501;-74
2022/12/27 02:20:31;;;;;;;3.80;2.43;;;;;;;;;;4982821;28;20538;-75
2022/12/27 02:26:46;;;;;;;7.70;2.40;;;;;;;;;;4975453;28;20490;-74
2022/12/27 02:30:03;;;;;;;7.50;2.87;;;;;;;;;;4979692;28;20470;-74
2022/12/27 02:32:57;;;;;;;6.17;3.53;;;;;;;;;;4966900;28;20489;-74
2022/12/27 02:35:48;;;;;;;6.53;2.97;;;;;;;;;;4958099;28;20475;-74
2022/12/27 02:38:43;;;;;;;4.50;2.40;;;;;;;;;;4973472;28;20465;-74
2022/12/27 02:54:27;;;;;;;3.60;2.23;;;;;;;;;;4975349;28;20441;-74
2022/12/27 02:57:21;;;;;;;4.40;2.50;;;;;;;;;;4979256;28;21045;-74
2022/12/27 03:03:36;;;;;;;5.90;2.60;;;;;;;;;;4984313;28;20482;-74
2022/12/27 03:06:42;;;;;;;3.50;2.60;;;;;;;;;;4980773;28;20479;-72
2022/12/27 03:16:12;;;;;;;4.47;2.60;;;;;;;;;;4977162;28;20471;-72
2022/12/27 03:19:13;;;;;;;6.13;2.90;;;;;;;;;;4958104;28;20491;-72
2022/12/27 03:34:51;;;;;;;4.73;2.87;;;;;;;;;;4968174;28;20939;-75
2022/12/27 03:38:03;;;;;;;7.10;3.07;;;;;;;;;;4961298;28;20467;-74
2022/12/27 03:44:22;;;;;;;6.80;3.40;;;;;;;;;;4970152;28;21180;-76
2022/12/27 03:47:13;;;;;;;4.50;3.50;;;;;;;;;;4956221;28;20680;-75
2022/12/27 03:50:08;;;;;;;6.60;3.47;;;;;;;;;;4969367;28;21001;-74
2022/12/27 03:52:58;;;;;;;4.77;3.07;;;;;;;;;;4974716;28;20470;-75
2022/12/27 03:55:49;;;;;;;5.17;3.50;;;;;;;;;;4971225;28;20973;-75
2022/12/27 03:58:42;;;;;;;4.67;3.00;;;;;;;;;;4970197;28;20575;-75
2022/12/27 04:01:37;;;;;;;4.07;2.60;;;;;;;;;;4966210;28;20499;-76
2022/12/27 04:04:29;;;;;;;4.03;2.50;;;;;;;;;;4970122;28;20930;-76
2022/12/27 04:07:23;;;;;;;5.07;3.20;;;;;;;;;;4960629;28;20459;-75
2022/12/27 04:35:17;;;;;;;6.77;3.30;;;;;;;;;;4971228;28;20828;-75
2022/12/27 04:38:08;;;;;;;5.77;3.27;;;;;;;;;;4964027;28;20474;-75
2022/12/27 04:56:49;;;;;;;7.17;4.20;;;;;;;;;;4971838;28;20463;-74
2022/12/27 05:02:46;;;;;;;5.97;3.80;;;;;;;;;;4971418;28;20545;-74
2022/12/27 05:05:37;;;;;;;6.20;3.80;;;;;;;;;;4971623;28;20454;-75
2022/12/27 05:14:53;;;;;;;5.07;3.50;;;;;;;;;;4946120;28;20603;-75
2022/12/27 05:17:41;;;;;;;7.67;4.13;;;;;;;;;;4968051;28;20845;-74
2022/12/27 05:20:30;;;;;;;5.93;4.07;;;;;;;;;;4967455;28;20909;-74
2022/12/27 05:26:29;;;;;;;6.23;3.80;;;;;;;;;;4964185;28;20462;-75
2022/12/27 05:29:21;;;;;;;7.03;3.73;;;;;;;;;;4969559;28;20479;-74
2022/12/27 05:32:10;;;;;;;6.17;3.50;;;;;;;;;;4964547;28;20484;-75
2022/12/27 05:35:01;;;;;;;6.67;3.33;;;;;;;;;;4968695;28;20778;-75
2022/12/27 05:37:50;;;;;;;7.00;3.27;;;;;;;;;;4972360;28;20451;-75
2022/12/27 05:40:42;;;;;;;7.77;3.97;;;;;;;;;;4971919;28;20565;-75
2022/12/27 05:43:36;;;;;;;7.57;3.87;;;;;;;;;;4970755;28;20447;-75
2022/12/27 05:46:26;;;;;;;5.40;3.00;;;;;;;;;;4972027;28;20435;-75
2022/12/27 05:49:20;;;;;;;4.40;3.93;;;;;;;;;;4969334;28;20555;-75
2022/12/27 05:52:18;;;;;;;8.13;3.37;;;;;;;;;;4962163;28;20537;-75
2022/12/27 05:55:09;;;;;;;4.97;3.37;;;;;;;;;;4965600;28;20604;-74
2022/12/27 05:57:58;;;;;;;5.17;3.37;;;;;;;;;;4971128;28;20474;-75
2022/12/27 06:00:55;;;;;;;4.93;3.40;;;;;;;;;;4967930;28;20497;-75
2022/12/27 06:03:51;;;;;;;4.63;3.23;;;;;;;;;;4967571;28;20448;-75
2022/12/27 06:06:43;;;;;;;8.23;3.20;;;;;;;;;;4970940;28;21036;-76
2022/12/27 06:09:31;;;;;;;4.97;3.40;;;;;;;;;;4958003;28;20485;-75
2022/12/27 06:12:23;;;;;;;3.37;3.07;;;;;;;;;;4969959;28;20510;-75
2022/12/27 06:15:11;;;;;;;3.90;3.50;;;;;;;;;;4970122;28;20449;-75
2022/12/27 06:18:05;;;;;;;5.57;3.60;;;;;;;;;;4968130;28;20566;-75
2022/12/27 06:20:55;;;;;;;9.50;3.60;;;;;;;;;;4967417;28;20468;-75
2022/12/27 06:23:44;;;;;;;4.93;2.97;;;;;;;;;;4969665;28;20465;-75
2022/12/27 06:26:33;;;;;;;5.10;3.80;;;;;;;;;;4962879;28;20456;-75
2022/12/27 06:29:24;;;;;;;8.20;3.60;;;;;;;;;;4961919;28;20477;-75
2022/12/27 06:32:14;;;;;;;5.93;3.40;;;;;;;;;;4971785;28;20484;-74
2022/12/27 06:35:03;;;;;;;7.33;3.57;;;;;;;;;;4970730;28;20881;-74
2022/12/27 06:38:04;;;;;;;6.43;3.70;;;;;;;;;;4964396;28;20542;-74
2022/12/27 06:40:53;;;;;;;6.23;4.13;;;;;;;;;;4967675;28;20488;-76
2022/12/27 06:43:46;;;;;;;8.97;3.47;;;;;;;;;;4970773;28;20459;-76
2022/12/27 06:46:38;;;;;;;6.50;3.43;;;;;;;;;;4968274;28;20454;-74
2022/12/27 06:49:26;;;;;;;7.00;3.43;;;;;;;;;;4957060;28;20489;-74
2022/12/27 06:52:15;;;;;;;3.80;2.90;;;;;;;;;;4967059;28;20493;-76
2022/12/27 06:55:05;;;;;;;5.60;3.53;;;;;;;;;;4969027;28;20483;-75
2022/12/27 06:57:56;;;;;;;4.43;2.50;;;;;;;;;;4969178;28;20544;-75
2022/12/27 07:00:47;;;;;;;4.00;2.70;;;;;;;;;;4965981;28;20567;-75
2022/12/27 07:03:38;;;;;;;3.53;2.97;;;;;;;;;;4973601;28;20445;-75
2022/12/27 07:06:29;;;;;;;4.13;2.70;;;;;;;;;;4963718;28;20467;-75
2022/12/27 07:09:21;;;;;;;4.30;2.90;;;;;;;;;;4970497;28;20494;-75
2022/12/27 07:12:15;;;;;;;6.97;3.30;;;;;;;;;;4971871;28;20488;-75
2022/12/27 07:15:04;;;;;;;7.27;3.10;;;;;;;;;;4965457;28;21014;-75
2022/12/27 07:17:53;;;;;;;6.20;3.47;;;;;;;;;;4967958;28;20462;-76
2022/12/27 07:20:46;;;;;;;5.53;3.10;;;;;;;;;;4959394;28;20921;-75
2022/12/27 07:23:50;;;;;;;3.70;3.00;;;;;;;;;;4968158;28;20974;-76
2022/12/27 07:26:44;;;;;;;5.60;2.77;;;;;;;;;;4974887;28;20826;-75
2022/12/27 07:29:38;;;;;;;5.10;3.10;;;;;;;;;;4965606;28;20468;-75
2022/12/27 07:32:34;;;;;;;5.80;2.97;;;;;;;;;;4973430;28;21021;-73
2022/12/27 07:35:30;;;;;;;4.00;3.07;;;;;;;;;;4974254;28;20499;-75
2022/12/27 07:38:18;;;;;;;6.50;3.27;;;;;;;;;;4955813;28;20944;-75
2022/12/27 07:41:07;;;;;;;6.97;3.33;;;;;;;;;;4972048;28;20564;-75
2022/12/27 07:43:58;;;;;;;5.17;3.37;;;;;;;;;;4974137;28;20483;-75
2022/12/27 07:46:48;;;;;;;5.60;3.80;;;;;;;;;;4964739;28;20568;-75
2022/12/27 07:49:40;;;;;;;5.87;3.27;;;;;;;;;;4966689;28;20983;-78
2022/12/27 07:52:31;;;;;;;6.17;3.60;;;;;;;;;;4974433;28;20478;-75
2022/12/27 07:55:19;;;;;;;6.30;3.83;;;;;;;;;;4969653;28;20482;-75
2022/12/27 07:58:11;;;;;;;6.20;3.27;;;;;;;;;;4967923;28;20833;-74
2022/12/27 08:01:03;;;;;;;5.00;2.90;;;;;;;;;;4972658;28;20596;-74
2022/12/27 08:03:53;;;;;;;6.93;3.10;;;;;;;;;;4963550;28;20862;-75
2022/12/27 08:06:47;;;;;;;7.50;2.93;;;;;;;;;;4974723;28;20452;-75
2022/12/27 08:09:39;;;;;;;4.50;3.10;;;;;;;;;;4966931;28;20480;-74
2022/12/27 08:12:28;;;;;;;4.77;3.10;;;;;;;;;;4967672;28;20474;-74
2022/12/27 08:15:27;;;;;;;6.50;3.10;;;;;;;;;;4968713;28;20491;-74
2022/12/27 08:18:17;;;;;;;6.07;3.40;;;;;;;;;;4970001;28;20869;-73
2022/12/27 08:21:09;;;;;;;3.70;3.33;;;;;;;;;;4971424;28;20559;-73
2022/12/27 08:24:06;;;;;;;5.67;3.17;;;;;;;;;;4973846;28;20503;-74
2022/12/27 08:27:04;;;;;;;5.10;3.20;;;;;;;;;;4972753;28;20474;-74
2022/12/27 08:29:56;;;;;;;5.57;2.87;;;;;;;;;;4968115;28;20487;-74
2022/12/27 08:32:49;;;;;;;5.50;3.40;;;;;;;;;;4965544;28;20486;-74
2022/12/27 08:35:43;;;;;;;4.73;3.00;;;;;;;;;;4972177;28;20566;-75
2022/12/27 08:38:43;;;;;;;3.33;2.80;;;;;;;;;;4963358;28;20488;-76
2022/12/27 08:41:35;;;;;;;3.83;2.30;;;;;;;;;;4972197;28;20510;-75
2022/12/27 08:44:24;;;;;;;5.17;2.83;;;;;;;;;;4967444;28;20458;-75
2022/12/27 08:47:25;;;;;;;3.90;2.43;;;;;;;;;;4964211;28;20455;-75
2022/12/27 08:50:15;;;;;;;5.63;2.70;;;;;;;;;;4967801;28;20476;-74
2022/12/27 08:53:06;;;;;;;6.30;3.23;;;;;;;;;;4970567;28;20532;-75
2022/12/27 08:55:59;;;;;;;5.67;3.80;;;;;;;;;;4964255;28;20852;-75
2022/12/27 08:58:49;;;;;;;4.10;2.73;;;;;;;;;;4974166;28;20479;-75
2022/12/27 09:01:39;;;;;;;5.00;3.27;;;;;;;;;;4965034;28;20612;-75
2022/12/27 09:04:30;;;;;;;4.13;2.60;;;;;;;;;;4968879;28;20462;-75
2022/12/27 09:07:21;;;;;;;6.20;2.87;;;;;;;;;;4970506;28;20460;-74
2022/12/27 09:10:11;;;;;;;5.03;3.40;;;;;;;;;;4974503;28;20469;-76
2022/12/27 09:13:01;;;;;;;4.20;3.30;;;;;;;;;;4963707;28;20580;-75
2022/12/27 09:15:51;;;;;;;6.40;3.30;;;;;;;;;;4972644;28;20578;-75
2022/12/27 09:18:44;;;;;;;4.83;3.67;;;;;;;;;;4963789;28;20516;-75
2022/12/27 09:21:35;;;;;;;6.73;2.90;;;;;;;;;;4970564;28;20477;-75
2022/12/27 09:24:24;;;;;;;6.20;3.47;;;;;;;;;;4968242;28;21030;-75
2022/12/27 09:27:13;;;;;;;4.27;2.80;;;;;;;;;;4970624;28;20462;-75
2022/12/27 09:30:04;;;;;;;4.67;3.10;;;;;;;;;;4963218;28;20480;-75
2022/12/27 09:33:01;;;;;;;4.43;3.40;;;;;;;;;;4970621;28;20457;-75
2022/12/27 09:35:53;;;;;;;8.27;3.87;;;;;;;;;;4962993;28;20484;-75
2022/12/27 09:38:41;;;;;;;7.90;3.37;;;;;;;;;;4963062;28;20487;-73
2022/12/27 09:41:43;;;;;;;4.60;2.80;;;;;;;;;;4966265;28;20483;-75
2022/12/27 09:44:55;;;;;;;9.60;3.33;;;;;;;;;;4981528;23;20535;-74
2022/12/27 09:47:52;;;;;;;4.53;3.10;;;;;;;;;;4982697;28;20878;-73
2022/12/27 09:50:48;;;;;;;6.97;2.90;;;;;;;;;;5003604;28;20454;-74
2022/12/27 09:53:40;;;;;;;5.10;2.67;;;;;;;;;;4986282;28;20857;-74
2022/12/27 09:56:29;;;;;;;6.70;3.27;;;;;;;;;;4979205;28;20484;-73
2022/12/27 09:59:40;;;;;;;7.80;2.90;;;;;;;;;;4983069;28;20473;-73
2022/12/27 10:02:36;;;;;;;8.67;3.07;;;;;;;;;;4992539;28;20531;-73
2022/12/27 10:05:30;;;;;;;9.70;2.90;;;;;;;;;;4991378;28;20987;-73
2022/12/27 10:08:26;;;;;;;5.20;2.90;;;;;;;;;;4994178;28;20475;-73
2022/12/27 10:11:42;;;;;;;2.77;2.43;;;;;;;;;;4995655;28;20533;-73
2022/12/27 10:14:49;;;;;;;5.60;3.23;;;;;;;;;;4991448;28;20478;-73
2022/12/27 10:17:48;;;;;;;8.67;3.10;;;;;;;;;;4981899;28;20470;-71
2022/12/27 10:20:53;;;;;;;9.63;3.43;;;;;;;;;;4982803;28;20538;-73
2022/12/27 10:23:45;;;;;;;4.37;2.67;;;;;;;;;;4985144;28;20542;-74
2022/12/27 10:26:40;;;;;;;4.93;2.53;;;;;;;;;;4997197;28;20455;-74
2022/12/27 10:29:32;;;;;;;5.27;3.20;;;;;;;;;;4994882;28;20899;-74
2022/12/27 10:32:21;;;;;;;5.47;2.40;;;;;;;;;;4983883;28;20476;-74
2022/12/27 10:35:14;;;;;;;8.07;3.07;;;;;;;;;;4983347;28;20847;-74
2022/12/27 10:38:11;;;;;;;5.47;2.80;;;;;;;;;;4986604;28;20596;-74
2022/12/27 10:41:06;;;;;;;5.93;2.60;;;;;;;;;;4987985;28;20899;-74
2022/12/27 10:43:57;;;;;;;4.70;2.20;;;;;;;;;;4990549;28;20504;-74
2022/12/27 10:46:52;;;;;;;8.27;2.80;;;;;;;;;;4985907;28;20466;-72
2022/12/27 10:49:59;;;;;;;4.97;2.80;;;;;;;;;;4990852;28;20482;-72
2022/12/27 10:52:50;;;;;;;3.30;2.20;;;;;;;;;;4975620;28;20775;-72
2022/12/27 10:55:46;;;;;;;4.03;2.27;;;;;;;;;;4987107;28;20998;-74
2022/12/27 10:58:39;;;;;;;5.80;2.33;;;;;;;;;;4991527;28;20975;-72
2022/12/27 11:01:33;;;;;;;7.73;2.40;;;;;;;;;;4987876;28;20462;-74
2022/12/27 11:04:25;;;;;;;5.33;2.23;;;;;;;;;;4992584;28;20858;-72
2022/12/27 11:07:20;;;;;;;3.90;2.13;;;;;;;;;;4984533;28;20447;-72
2022/12/27 11:10:15;;;;;;;4.27;2.47;;;;;;;;;;4984750;28;20985;-72
2022/12/27 11:13:18;;;;;;;7.07;2.37;;;;;;;;;;4981973;28;20452;-72
2022/12/27 11:16:13;;;;;;;3.57;2.10;;;;;;;;;;4984862;28;20482;-72
2022/12/27 11:19:04;;;;;;;4.27;2.47;;;;;;;;;;4984736;28;20476;-73
2022/12/27 11:21:55;;;;;;;6.20;2.03;;;;;;;;;;4983697;28;20466;-73
2022/12/27 11:24:46;;;;;;;8.77;2.80;;;;;;;;;;4993591;28;20484;-73
2022/12/27 11:27:37;;;;;;;3.80;2.10;;;;;;;;;;4995946;28;20445;-73
2022/12/27 11:30:32;;;;;;;11.27;2.20;;;;;;;;;;4990854;28;20472;-73
2022/12/27 11:33:24;;;;;;;3.47;2.00;;;;;;;;;;4987040;28;20458;-72
2022/12/27 11:36:19;;;;;;;2.60;2.00;;;;;;;;;;4988142;28;20483;-72
2022/12/27 11:39:08;;;;;;;5.00;2.00;;;;;;;;;;4996461;28;20475;-72
2022/12/27 11:42:00;;;;;;;3.90;2.73;;;;;;;;;;4984521;28;20477;-73
2022/12/27 11:44:55;;;;;;;5.50;2.00;;;;;;;;;;4981222;28;20482;-73
2022/12/27 11:47:52;;;;;;;3.43;2.03;;;;;;;;;;4980683;28;20497;-73
2022/12/27 11:50:50;;;;;;;4.73;1.60;;;;;;;;;;4994600;28;20445;-73
2022/12/27 11:53:58;;;;;;;5.10;1.90;;;;;;;;;;4981223;28;21036;-73
2022/12/27 11:56:51;;;;;;;2.30;2.07;;;;;;;;;;4988722;28;20482;-73
2022/12/27 11:59:46;;;;;;;4.50;1.77;;;;;;;;;;4991728;28;20469;-73
2022/12/27 12:02:47;;;;;;;5.77;2.30;;;;;;;;;;4979191;28;20459;-73
2022/12/27 12:06:02;;;;;;;4.83;2.33;;;;;;;;;;4997976;28;21011;-74
2022/12/27 12:09:17;;;;;;;8.30;2.10;;;;;;;;;;4983770;28;20480;-74
2022/12/27 12:12:26;;;;;;;2.33;1.80;;;;;;;;;;4996352;28;20457;-74
2022/12/27 12:15:46;;;;;;;3.20;1.67;;;;;;;;;;4990807;28;20464;-74
2022/12/27 12:18:55;;;;;;;8.80;2.50;;;;;;;;;;4948670;28;20476;-74
2022/12/27 12:21:55;;;;;;;4.10;2.23;;;;;;;;;;4984102;28;20454;-74
2022/12/27 12:24:53;;;;;;;3.87;2.07;;;;;;;;;;4988464;28;20467;-74
2022/12/27 12:27:54;;;;;;;8.00;2.83;;;;;;;;;;4979329;28;20504;-73
2022/12/27 12:30:57;;;;;;;4.17;2.10;;;;;;;;;;4989829;28;20454;-73
2022/12/27 12:33:51;;;;;;;9.67;2.50;;;;;;;;;;4988708;28;20450;-74
2022/12/27 12:37:01;;;;;;;8.60;2.90;;;;;;;;;;4996298;28;20476;-74
2022/12/27 12:39:59;;;;;;;5.27;2.20;;;;;;;;;;4980976;28;20478;-74
2022/12/27 12:42:53;;;;;;;5.00;2.60;;;;;;;;;;4980367;28;20473;-74
2022/12/27 12:46:12;;;;;;;4.50;2.53;;;;;;;;;;4986575;28;20489;-74
2022/12/27 12:49:26;;;;;;;4.50;2.47;;;;;;;;;;4992099;28;20636;-74
2022/12/27 12:52:28;;;;;;;4.10;2.00;;;;;;;;;;4981914;28;20471;-74
2022/12/27 12:55:38;;;;;;;3.57;1.97;;;;;;;;;;4978404;28;20969;-74
2022/12/27 12:58:38;;;;;;;3.77;2.47;;;;;;;;;;4993247;28;20468;-74
2022/12/27 13:02:00;;;;;;;7.10;2.40;;;;;;;;;;4982110;28;20456;-74
2022/12/27 13:05:01;;;;;;;4.70;2.43;;;;;;;;;;4981891;28;21042;-74
2022/12/27 13:07:57;;;;;;;8.23;2.70;;;;;;;;;;4980769;28;20449;-74
2022/12/27 13:11:09;;;;;;;4.13;2.17;;;;;;;;;;4989898;28;20537;-74
2022/12/27 13:14:04;;;;;;;4.10;2.30;;;;;;;;;;4979843;28;20484;-74
2022/12/27 13:16:55;;;;;;;6.47;3.30;;;;;;;;;;4998821;28;20853;-74
2022/12/27 13:20:01;;;;;;;5.87;2.33;;;;;;;;;;4982834;28;20856;-74
2022/12/27 13:22:58;;;;;;;6.83;2.43;;;;;;;;;;4981480;28;20462;-74
2022/12/27 13:25:52;;;;;;;3.70;2.30;;;;;;;;;;4992774;28;20486;-74
2022/12/27 13:28:46;;;;;;;7.97;2.50;;;;;;;;;;4989234;28;20480;-74
2022/12/27 13:31:40;;;;;;;7.67;2.30;;;;;;;;;;4984679;28;20537;-74
2022/12/27 13:34:34;;;;;;;7.83;2.67;;;;;;;;;;5001793;28;20464;-74
2022/12/27 13:37:33;;;;;;;5.70;2.20;;;;;;;;;;4975814;28;20985;-74
2022/12/27 13:40:31;;;;;;;6.80;2.40;;;;;;;;;;4986516;28;20502;-74
2022/12/27 13:43:39;;;;;;;5.80;2.50;;;;;;;;;;4992851;28;20449;-74
2022/12/27 13:46:55;;;;;;;7.77;3.20;;;;;;;;;;4995139;28;20456;-74
2022/12/27 13:49:58;;;;;;;7.47;2.40;;;;;;;;;;4986864;28;20478;-74
2022/12/27 13:52:52;;;;;;;5.70;2.50;;;;;;;;;;4982179;28;20467;-74
2022/12/27 13:55:56;;;;;;;3.63;2.60;;;;;;;;;;4984106;28;20482;-74
2022/12/27 13:58:49;;;;;;;6.90;2.60;;;;;;;;;;4984463;28;20492;-74
2022/12/27 14:01:58;;;;;;;6.40;2.40;;;;;;;;;;4994867;28;21194;-74
2022/12/27 14:04:52;;;;;;;4.23;2.50;;;;;;;;;;4987418;28;20485;-74
2022/12/27 14:07:54;;;;;;;6.37;2.73;;;;;;;;;;4993696;28;20556;-73
2022/12/27 14:10:50;;;;;;;6.87;2.37;;;;;;;;;;4992482;28;20831;-74
2022/12/27 14:13:51;;;;;;;6.20;2.27;;;;;;;;;;4986359;28;20537;-74
2022/12/27 14:16:54;;;;;;;7.57;2.57;;;;;;;;;;4985965;28;20477;-74
2022/12/27 14:20:01;;;;;;;7.50;2.97;;;;;;;;;;4981010;28;20499;-74
2022/12/27 14:22:58;;;;;;;4.90;2.43;;;;;;;;;;4993042;28;20453;-74
2022/12/27 14:26:08;;;;;;;4.73;2.40;;;;;;;;;;4986674;28;20478;-74
2022/12/27 14:32:32;;;;;;;7.03;2.53;;;;;;;;;;4979296;28;20565;-74
2022/12/27 14:35:32;;;;;;;10.37;2.37;;;;;;;;;;4990598;28;21011;-74
2022/12/27 14:38:37;;;;;;;8.97;3.10;;;;;;;;;;4986902;28;20485;-74
2022/12/27 14:41:43;;;;;;;3.90;3.00;;;;;;;;;;4985804;28;20450;-74
2022/12/27 14:45:04;;;;;;;4.60;2.87;;;;;;;;;;4989007;28;20552;-74
2022/12/27 14:48:04;;;;;;;5.97;2.93;;;;;;;;;;4914628;29;20453;-74
2022/12/27 14:51:05;;;;;;;6.97;2.50;;;;;;;;;;4985901;28;20462;-74
2022/12/27 14:54:36;;;;;;;4.60;2.90;;;;;;;;;;4983664;28;20487;-73
2022/12/27 14:57:30;;;;;;;4.77;3.50;;;;;;;;;;4980778;28;20876;-73
2022/12/27 15:00:43;;;;;;;6.10;3.23;;;;;;;;;;4977473;28;20882;-74
2022/12/27 15:03:47;;;;;;;4.23;2.70;;;;;;;;;;4979475;28;20465;-74
2022/12/27 15:06:49;;;;;;;6.37;2.97;;;;;;;;;;4982965;28;20861;-74
2022/12/27 15:09:41;;;;;;;7.20;2.80;;;;;;;;;;4984719;28;20476;-73
2022/12/27 15:12:35;;;;;;;6.00;2.87;;;;;;;;;;4987699;28;20461;-74
2022/12/27 15:15:29;;;;;;;5.70;3.30;;;;;;;;;;4959250;28;21034;-74
2022/12/27 15:18:27;;;;;;;7.23;3.33;;;;;;;;;;4956777;28;20496;-73
2022/12/27 15:21:25;;;;;;;6.93;3.20;;;;;;;;;;4971619;28;20569;-74
2022/12/27 15:24:21;;;;;;;6.13;3.60;;;;;;;;;;4971612;28;20478;-74
2022/12/27 15:27:17;;;;;;;6.70;3.57;;;;;;;;;;4972077;28;20459;-74
2022/12/27 15:30:25;;;;;;;7.37;3.63;;;;;;;;;;4963885;28;20832;-74
2022/12/27 15:33:22;;;;;;;7.83;4.13;;;;;;;;;;4982334;28;20465;-74
2022/12/27 15:36:14;;;;;;;8.33;3.30;;;;;;;;;;4969546;28;20510;-74
2022/12/27 15:39:07;;;;;;;7.03;3.90;;;;;;;;;;4976048;28;20489;-74
2022/12/27 15:42:13;;;;;;;6.07;3.80;;;;;;;;;;4981145;28;20459;-73
2022/12/27 15:45:04;;;;;;;7.20;4.23;;;;;;;;;;4970699;28;20488;-74
2022/12/27 15:48:11;;;;;;;10.20;4.30;;;;;;;;;;4967013;28;20453;-74
2022/12/27 15:51:04;;;;;;;7.87;4.40;;;;;;;;;;4943673;28;20460;-74
2022/12/27 15:54:12;;;;;;;6.97;4.33;;;;;;;;;;4974273;28;21029;-74
2022/12/27 15:57:19;;;;;;;9.60;4.30;;;;;;;;;;4972566;28;20466;-74
2022/12/27 16:00:16;;;;;;;7.53;4.30;;;;;;;;;;4973292;28;21051;-74
2022/12/27 16:03:25;;;;;;;9.77;5.20;;;;;;;;;;4979738;28;20549;-74
2022/12/27 16:06:47;;;;;;;10.00;4.90;;;;;;;;;;4983964;28;20832;-74
2022/12/27 16:09:38;;;;;;;8.03;5.00;;;;;;;;;;4984285;28;20579;-74
2022/12/27 16:12:37;;;;;;;7.37;4.67;;;;;;;;;;4975799;28;20462;-74
2022/12/27 16:15:39;;;;;;;7.97;4.40;;;;;;;;;;4972975;28;20484;-74
2022/12/27 16:18:46;;;;;;;8.33;4.73;;;;;;;;;;4969869;28;20488;-74
2022/12/27 16:21:40;;;;;;;11.27;4.77;;;;;;;;;;4973066;28;20454;-74
2022/12/27 16:24:29;;;;;;;7.10;5.00;;;;;;;;;;4977030;28;20481;-74
2022/12/27 16:27:23;;;;;;;9.13;5.60;;;;;;;;;;4977465;28;20466;-73
2022/12/27 16:30:12;;;;;;;8.30;5.40;;;;;;;;;;4970764;28;20478;-74
2022/12/27 16:33:03;;;;;;;6.80;4.90;;;;;;;;;;4971572;28;20449;-74
2022/12/27 16:36:12;;;;;;;12.67;5.63;;;;;;;;;;4976171;28;20488;-74
2022/12/27 16:39:18;;;;;;;8.00;5.87;;;;;;;;;;4972879;28;20508;-74
2022/12/27 16:42:07;;;;;;;6.70;5.40;;;;;;;;;;4968351;28;20528;-74
2022/12/27 16:45:02;;;;;;;8.37;5.60;;;;;;;;;;4965504;28;20901;-74
2022/12/27 16:48:00;;;;;;;9.67;6.73;;;;;;;;;;4980922;28;20449;-74
2022/12/27 16:50:57;;;;;;;9.97;6.30;;;;;;;;;;4973850;28;20465;-74
2022/12/27 16:54:00;;;;;;;9.77;6.43;;;;;;;;;;4980242;28;20471;-74
2022/12/27 16:56:49;;;;;;;7.53;5.97;;;;;;;;;;4979721;28;20591;-74
2022/12/27 16:59:56;;;;;;;11.40;6.23;;;;;;;;;;4976375;28;21032;-74
2022/12/27 17:02:45;;;;;;;12.40;6.77;;;;;;;;;;4979753;28;20626;-74
2022/12/27 17:05:36;;;;;;;8.13;6.30;;;;;;;;;;4963190;28;20486;-74
2022/12/27 17:08:37;;;;;;;10.23;6.27;;;;;;;;;;4972754;28;20496;-74
2022/12/27 17:11:27;;;;;;;10.07;6.30;;;;;;;;;;4970323;28;20466;-74
2022/12/27 17:14:17;;;;;;;8.10;6.83;;;;;;;;;;4980839;28;20833;-74
2022/12/27 17:17:09;;;;;;;9.07;6.80;;;;;;;;;;4970398;28;20452;-74
2022/12/27 17:20:01;;;;;;;10.27;7.43;;;;;;;;;;4974460;28;20480;-74
2022/12/27 17:22:52;;;;;;;13.77;7.20;;;;;;;;;;4967682;28;20463;-74
2022/12/27 17:25:44;;;;;;;9.97;7.80;;;;;;;;;;4982339;28;20562;-74
2022/12/27 17:28:37;;;;;;;12.87;7.03;;;;;;;;;;4984084;28;20563;-74
2022/12/27 17:31:28;;;;;;;11.00;7.70;;;;;;;;;;4976813;28;20456;-74
2022/12/27 17:34:19;;;;;;;9.03;7.40;;;;;;;;;;4971394;28;20478;-74
2022/12/27 17:37:15;;;;;;;10.43;7.37;;;;;;;;;;4968257;28;20456;-74
2022/12/27 17:40:11;;;;;;;13.70;8.60;;;;;;;;;;4955514;28;20583;-74
2022/12/27 17:46:21;;;;;;;12.90;9.43;;;;;;;;;;4962956;28;20547;-75
2022/12/27 17:49:11;;;;;;;10.80;8.50;;;;;;;;;;4968072;28;20993;-74
2022/12/27 17:58:25;;;;;;;12.20;9.20;;;;;;;;;;4965922;28;20583;-75
2022/12/27 18:01:13;;;;;;;10.77;7.90;;;;;;;;;;4972046;28;20502;-74
2022/12/27 18:04:05;;;;;;;13.07;8.10;;;;;;;;;;4976065;28;20488;-74
2022/12/27 18:06:55;;;;;;;11.37;8.37;;;;;;;;;;4979003;28;22574;-76
2022/12/27 18:09:45;;;;;;;10.53;7.60;;;;;;;;;;4961600;28;21458;-73
2022/12/27 18:12:37;;;;;;;12.70;8.50;;;;;;;;;;4964829;28;20453;-74
2022/12/27 18:15:27;;;;;;;12.00;9.07;;;;;;;;;;4965522;28;20485;-73
2022/12/27 18:18:19;;;;;;;10.13;8.30;;;;;;;;;;4964428;28;21054;-73
2022/12/27 18:21:20;;;;;;;12.40;9.13;;;;;;;;;;4975518;28;20478;-72
2022/12/27 18:24:18;;;;;;;10.80;8.40;;;;;;;;;;4971895;28;20496;-73
2022/12/27 18:27:09;;;;;;;12.77;8.93;;;;;;;;;;4964528;28;20493;-74
2022/12/27 18:29:58;;;;;;;12.07;8.87;;;;;;;;;;4965902;28;20470;-73
2022/12/27 18:32:48;;;;;;;13.90;9.13;;;;;;;;;;4978119;28;20459;-73
2022/12/27 18:35:37;;;;;;;12.00;9.53;;;;;;;;;;4969250;28;20482;-74
2022/12/27 18:38:28;;;;;;;15.93;9.73;;;;;;;;;;4969153;28;20605;-74
2022/12/27 18:41:18;;;;;;;12.17;9.27;;;;;;;;;;4966333;28;20460;-73
2022/12/27 18:44:12;;;;;;;12.77;10.00;;;;;;;;;;4976679;28;20871;-74
2022/12/27 18:47:02;;;;;;;13.67;8.97;;;;;;;;;;4958582;28;20465;-73
2022/12/27 18:49:57;;;;;;;13.07;9.97;;;;;;;;;;4957110;28;20478;-73
2022/12/27 18:52:45;;;;;;;13.10;10.37;;;;;;;;;;4967888;28;20473;-74
2022/12/27 18:55:55;;;;;;;14.10;10.37;;;;;;;;;;4964420;28;20496;-73
2022/12/27 18:58:59;;;;;;;14.83;10.30;;;;;;;;;;4971737;28;20485;-74
2022/12/27 19:01:48;;;;;;;11.77;9.93;;;;;;;;;;4961056;28;20454;-73
2022/12/27 19:04:37;;;;;;;12.40;9.43;;;;;;;;;;4966782;28;20488;-72
2022/12/27 19:07:27;;;;;;;13.27;9.83;;;;;;;;;;4972270;28;20592;-73
2022/12/27 19:10:21;;;;;;;15.90;10.83;;;;;;;;;;4973655;28;20470;-76
2022/12/27 19:13:17;;;;;;;11.83;9.60;;;;;;;;;;4976823;28;20453;-77
2022/12/27 19:16:18;;;;;;;11.93;9.83;;;;;;;;;;4983069;28;20533;-78
2022/12/27 19:19:15;;;;;;;13.40;11.30;;;;;;;;;;4991731;28;21005;-75
2022/12/27 19:22:25;;;;;;;12.17;9.90;;;;;;;;;;4990648;28;20500;-74